Time;durP1;ratioP1;P1;durP2;ratioP2;P2;SDS_P1;SDS_P2;PMS_P1;PMS_P2;Temp;Humidity;BMP_temperature;BMP_pressure;BME280_temperature;BME280_humidity;BME280_pressure;Samples;Min_cycle;Max_cycle;Signal;HPM_P1;HPM_P2
2023/03/07 00:02:20;;;;;;;36.80;15.90;;;;;;;;;;5031604;28;20035;-62
2023/03/07 00:04:45;;;;;;;32.17;12.50;;;;;;;;;;5031415;28;20029;-63
2023/03/07 00:07:11;;;;;;;44.45;16.85;;;;;;;;;;5035292;28;20065;-63
2023/03/07 00:09:37;;;;;;;31.38;13.40;;;;;;;;;;5032706;28;20041;-63
2023/03/07 00:12:03;;;;;;;41.47;14.80;;;;;;;;;;5031898;28;20028;-62
2023/03/07 00:14:28;;;;;;;37.15;15.95;;;;;;;;;;5027141;28;20047;-62
2023/03/07 00:16:54;;;;;;;29.77;13.68;;;;;;;;;;5031930;28;20155;-63
2023/03/07 00:19:19;;;;;;;24.90;12.15;;;;;;;;;;5033524;28;20492;-63
2023/03/07 00:21:44;;;;;;;38.95;15.63;;;;;;;;;;5033365;28;20454;-62
2023/03/07 00:24:10;;;;;;;36.70;14.82;;;;;;;;;;5030528;28;20195;-63
2023/03/07 00:26:38;;;;;;;33.97;13.88;;;;;;;;;;5032204;28;20029;-63
2023/03/07 00:29:06;;;;;;;37.80;16.25;;;;;;;;;;5031582;28;20072;-62
2023/03/07 00:31:33;;;;;;;34.10;16.92;;;;;;;;;;5021381;28;20035;-62
2023/03/07 00:33:58;;;;;;;30.23;14.02;;;;;;;;;;5021033;28;20037;-62
2023/03/07 00:36:24;;;;;;;34.20;17.15;;;;;;;;;;5024432;28;20045;-63
2023/03/07 00:38:51;;;;;;;42.47;19.40;;;;;;;;;;5033189;28;20041;-62
2023/03/07 00:41:22;;;;;;;32.25;15.30;;;;;;;;;;5030407;28;20030;-63
2023/03/07 00:43:47;;;;;;;30.63;16.95;;;;;;;;;;5026980;28;20062;-62
2023/03/07 00:46:14;;;;;;;33.95;16.00;;;;;;;;;;5030654;28;20269;-63
2023/03/07 00:48:39;;;;;;;54.25;18.08;;;;;;;;;;5032639;28;20037;-64
2023/03/07 00:51:07;;;;;;;36.53;17.70;;;;;;;;;;5031956;28;20040;-64
2023/03/07 00:53:33;;;;;;;32.40;18.25;;;;;;;;;;5024799;28;20462;-63
2023/03/07 00:56:05;;;;;;;22.65;14.10;;;;;;;;;;5005955;28;20032;-61
2023/03/07 00:58:33;;;;;;;31.77;15.45;;;;;;;;;;5033675;28;20039;-62
2023/03/07 01:01:00;;;;;;;25.13;13.00;;;;;;;;;;5031293;28;20060;-62
2023/03/07 01:03:26;;;;;;;33.22;16.70;;;;;;;;;;5032470;28;20029;-61
2023/03/07 01:05:52;;;;;;;24.17;11.70;;;;;;;;;;5031401;28;20496;-63
2023/03/07 01:08:19;;;;;;;18.80;10.57;;;;;;;;;;5033798;28;20065;-63
2023/03/07 01:10:44;;;;;;;23.13;12.10;;;;;;;;;;5030808;28;20233;-62
2023/03/07 01:13:11;;;;;;;20.60;11.82;;;;;;;;;;5029288;28;20473;-62
2023/03/07 01:15:37;;;;;;;25.15;11.70;;;;;;;;;;5025267;28;20033;-63
2023/03/07 01:18:04;;;;;;;29.10;12.95;;;;;;;;;;5031677;28;20084;-63
2023/03/07 01:20:33;;;;;;;23.20;11.63;;;;;;;;;;5010997;28;20042;-62
2023/03/07 01:22:58;;;;;;;23.98;13.13;;;;;;;;;;5031129;28;20034;-62
2023/03/07 01:25:24;;;;;;;22.88;12.60;;;;;;;;;;5031716;28;20044;-61
2023/03/07 01:27:54;;;;;;;21.25;11.25;;;;;;;;;;5031946;28;20044;-63
2023/03/07 01:30:20;;;;;;;22.30;10.83;;;;;;;;;;5015362;28;20034;-61
2023/03/07 01:32:47;;;;;;;19.50;11.35;;;;;;;;;;5013284;28;20378;-62
2023/03/07 01:35:13;;;;;;;20.45;10.68;;;;;;;;;;5029366;28;20036;-63
2023/03/07 01:37:38;;;;;;;12.18;6.85;;;;;;;;;;5031885;28;20029;-62
2023/03/07 01:40:04;;;;;;;21.98;11.65;;;;;;;;;;5010754;28;20151;-63
2023/03/07 01:42:30;;;;;;;29.67;14.77;;;;;;;;;;5042412;28;20060;-62
2023/03/07 01:45:27;;;;;;;18.70;9.63;;;;;;;;;;5030295;28;20049;-62
2023/03/07 01:47:52;;;;;;;20.08;10.80;;;;;;;;;;5030931;28;20045;-61
2023/03/07 01:50:18;;;;;;;23.50;12.90;;;;;;;;;;5015454;28;20567;-61
2023/03/07 01:52:55;;;;;;;21.17;10.45;;;;;;;;;;5030499;28;20029;-61
2023/03/07 01:55:24;;;;;;;27.02;13.52;;;;;;;;;;5029219;28;20033;-62
2023/03/07 01:57:51;;;;;;;24.30;12.40;;;;;;;;;;5030701;28;20491;-62
2023/03/07 02:00:25;;;;;;;22.33;11.35;;;;;;;;;;5029171;28;20037;-63
2023/03/07 02:03:13;;;;;;;21.15;12.48;;;;;;;;;;5030247;28;20210;-62
2023/03/07 02:05:55;;;;;;;21.40;10.32;;;;;;;;;;5031400;28;20466;-62
2023/03/07 02:08:25;;;;;;;25.63;13.07;;;;;;;;;;5030003;28;20040;-61
2023/03/07 02:10:51;;;;;;;30.42;14.13;;;;;;;;;;5032140;28;20482;-61
2023/03/07 02:13:17;;;;;;;18.95;10.85;;;;;;;;;;5030212;28;20155;-63
2023/03/07 02:15:42;;;;;;;27.92;13.68;;;;;;;;;;5022200;28;20036;-61
2023/03/07 02:18:08;;;;;;;21.92;12.32;;;;;;;;;;5032760;28;20112;-61
2023/03/07 02:20:40;;;;;;;21.38;11.13;;;;;;;;;;5013524;28;20060;-63
2023/03/07 02:23:12;;;;;;;27.95;14.23;;;;;;;;;;5030248;28;20104;-62
2023/03/07 02:25:53;;;;;;;19.23;9.63;;;;;;;;;;5028506;28;20040;-63
2023/03/07 02:28:19;;;;;;;;;;;;;;;;;;5030729;28;20048;-61
2023/03/07 02:31:00;;;;;;;15.85;8.40;;;;;;;;;;5028951;28;19916;-62
2023/03/07 02:33:27;;;;;;;16.23;8.15;;;;;;;;;;5028870;28;20065;-61
2023/03/07 02:35:57;;;;;;;20.20;8.82;;;;;;;;;;5030141;28;20057;-62
2023/03/07 02:38:23;;;;;;;13.23;7.82;;;;;;;;;;5030097;28;20041;-62
2023/03/07 02:40:51;;;;;;;18.98;10.55;;;;;;;;;;5013440;28;20029;-61
2023/03/07 02:43:16;;;;;;;12.68;6.88;;;;;;;;;;5030058;28;20037;-62
2023/03/07 02:45:42;;;;;;;10.95;6.18;;;;;;;;;;5034199;28;20056;-61
2023/03/07 02:48:07;;;;;;;15.43;6.85;;;;;;;;;;5028937;28;20031;-63
2023/03/07 02:50:34;;;;;;;10.27;6.53;;;;;;;;;;5018676;28;20540;-62
2023/03/07 02:52:59;;;;;;;11.70;5.70;;;;;;;;;;5007367;28;20084;-63
2023/03/07 02:55:25;;;;;;;11.43;6.45;;;;;;;;;;5030016;28;20037;-62
2023/03/07 02:57:52;;;;;;;10.70;5.78;;;;;;;;;;5028880;28;20043;-63
2023/03/07 03:00:18;;;;;;;11.95;6.13;;;;;;;;;;5029929;28;20033;-62
2023/03/07 03:02:43;;;;;;;8.30;5.25;;;;;;;;;;5018961;28;20045;-62
2023/03/07 03:05:09;;;;;;;14.60;6.22;;;;;;;;;;5027342;28;20084;-62
2023/03/07 03:07:34;;;;;;;15.80;7.40;;;;;;;;;;5031236;28;20037;-62
2023/03/07 03:10:00;;;;;;;12.23;7.18;;;;;;;;;;5021454;28;20120;-61
2023/03/07 03:12:25;;;;;;;13.02;6.75;;;;;;;;;;5029108;28;20037;-62
2023/03/07 03:14:50;;;;;;;16.08;8.27;;;;;;;;;;5029309;28;20061;-63
2023/03/07 03:17:16;;;;;;;15.82;7.10;;;;;;;;;;5028774;28;20057;-62
2023/03/07 03:19:41;;;;;;;15.02;6.90;;;;;;;;;;5030270;28;20069;-62
2023/03/07 03:22:07;;;;;;;14.70;7.22;;;;;;;;;;5028646;28;20108;-62
2023/03/07 03:24:32;;;;;;;11.02;5.65;;;;;;;;;;5019436;28;20045;-62
2023/03/07 03:26:58;;;;;;;8.80;4.82;;;;;;;;;;5017648;28;20034;-63
2023/03/07 03:29:24;;;;;;;11.70;5.55;;;;;;;;;;5012439;28;20481;-62
2023/03/07 03:31:50;;;;;;;9.30;5.40;;;;;;;;;;5031951;28;20082;-63
2023/03/07 03:34:16;;;;;;;9.73;4.57;;;;;;;;;;5033252;28;20127;-63
2023/03/07 03:36:41;;;;;;;10.32;6.13;;;;;;;;;;5030462;28;20513;-62
2023/03/07 03:39:09;;;;;;;10.45;5.82;;;;;;;;;;5033686;28;20032;-62
2023/03/07 03:41:35;;;;;;;14.10;7.38;;;;;;;;;;5038717;28;20091;-63
2023/03/07 03:44:01;;;;;;;13.10;6.93;;;;;;;;;;5032858;28;20065;-61
2023/03/07 03:46:26;;;;;;;12.25;6.28;;;;;;;;;;5032155;28;20039;-61
2023/03/07 03:48:53;;;;;;;13.02;6.20;;;;;;;;;;5033605;28;20312;-62
2023/03/07 03:51:19;;;;;;;12.38;6.80;;;;;;;;;;5032965;28;20025;-61
2023/03/07 03:53:45;;;;;;;14.95;8.30;;;;;;;;;;5020980;28;20434;-61
2023/03/07 03:56:13;;;;;;;13.15;8.07;;;;;;;;;;5015230;28;20172;-62
2023/03/07 03:58:39;;;;;;;13.18;6.57;;;;;;;;;;5034176;28;21593;-61
2023/03/07 04:01:06;;;;;;;11.57;6.30;;;;;;;;;;5013931;28;20037;-63
2023/03/07 04:03:37;;;;;;;11.02;6.95;;;;;;;;;;5030735;28;20029;-63
2023/03/07 04:06:08;;;;;;;7.87;4.53;;;;;;;;;;5033014;28;20033;-63
2023/03/07 04:08:34;;;;;;;9.15;4.82;;;;;;;;;;5042826;28;20640;-62
2023/03/07 04:11:00;;;;;;;7.60;4.82;;;;;;;;;;5034434;28;20091;-63
2023/03/07 04:13:26;;;;;;;6.78;4.13;;;;;;;;;;5032189;28;20163;-62
2023/03/07 04:15:53;;;;;;;8.95;5.68;;;;;;;;;;5014513;28;20062;-63
2023/03/07 04:18:19;;;;;;;7.88;4.35;;;;;;;;;;5030086;28;20036;-61
2023/03/07 04:20:46;;;;;;;10.20;6.22;;;;;;;;;;5034265;28;20029;-62
2023/03/07 04:23:11;;;;;;;12.35;5.95;;;;;;;;;;5031181;28;20032;-62
2023/03/07 04:25:37;;;;;;;9.50;6.20;;;;;;;;;;5033002;28;20029;-63
2023/03/07 04:28:03;;;;;;;7.72;4.78;;;;;;;;;;5013793;28;20064;-63
2023/03/07 04:30:28;;;;;;;8.68;4.95;;;;;;;;;;5031128;28;20041;-63
2023/03/07 04:32:54;;;;;;;14.23;5.68;;;;;;;;;;5032473;28;20384;-64
2023/03/07 04:35:19;;;;;;;14.60;7.55;;;;;;;;;;5031304;28;20097;-65
2023/03/07 04:37:44;;;;;;;12.95;7.75;;;;;;;;;;5028845;28;20049;-64
2023/03/07 04:40:10;;;;;;;8.73;5.13;;;;;;;;;;5032330;28;20466;-64
2023/03/07 04:42:36;;;;;;;9.45;5.43;;;;;;;;;;5031996;28;20108;-64
2023/03/07 04:45:01;;;;;;;17.48;6.88;;;;;;;;;;5032409;28;20054;-64
2023/03/07 04:47:26;;;;;;;14.30;7.00;;;;;;;;;;5032360;28;20021;-64
2023/03/07 04:49:52;;;;;;;9.35;5.30;;;;;;;;;;5033607;28;20427;-64
2023/03/07 04:52:17;;;;;;;12.13;6.80;;;;;;;;;;5015060;28;20048;-65
2023/03/07 04:54:43;;;;;;;10.43;5.32;;;;;;;;;;5033855;28;20439;-64
2023/03/07 04:57:09;;;;;;;12.32;6.57;;;;;;;;;;5032689;28;20108;-63
2023/03/07 04:59:37;;;;;;;13.60;7.43;;;;;;;;;;5031730;28;20120;-64
2023/03/07 05:02:07;;;;;;;14.60;7.05;;;;;;;;;;5033469;28;20434;-63
2023/03/07 05:04:33;;;;;;;17.13;8.45;;;;;;;;;;5031779;28;20036;-64
2023/03/07 05:06:58;;;;;;;15.52;8.25;;;;;;;;;;5032396;28;20390;-63
2023/03/07 05:09:24;;;;;;;12.80;6.97;;;;;;;;;;5032916;28;20041;-64
2023/03/07 05:11:49;;;;;;;14.93;7.90;;;;;;;;;;5033441;28;20164;-63
2023/03/07 05:14:15;;;;;;;15.82;7.57;;;;;;;;;;5032522;28;20026;-64
2023/03/07 05:16:40;;;;;;;20.33;9.20;;;;;;;;;;5032983;28;20083;-64
2023/03/07 05:19:07;;;;;;;10.85;5.05;;;;;;;;;;5033389;28;20476;-65
2023/03/07 05:21:33;;;;;;;17.38;7.97;;;;;;;;;;5031943;28;20030;-65
2023/03/07 05:23:58;;;;;;;12.07;6.38;;;;;;;;;;5033251;28;20044;-64
2023/03/07 05:26:23;;;;;;;14.77;7.70;;;;;;;;;;5032254;28;20105;-64
2023/03/07 05:28:49;;;;;;;10.45;5.65;;;;;;;;;;5033343;28;20425;-64
2023/03/07 05:31:14;;;;;;;16.42;7.70;;;;;;;;;;5031980;28;20079;-64
2023/03/07 05:33:41;;;;;;;16.23;8.68;;;;;;;;;;5033058;28;20030;-64
2023/03/07 05:36:07;;;;;;;20.42;9.68;;;;;;;;;;5031026;28;20035;-65
2023/03/07 05:38:33;;;;;;;20.65;10.20;;;;;;;;;;5013975;28;20482;-64
2023/03/07 05:40:59;;;;;;;24.02;11.63;;;;;;;;;;5032579;28;20048;-64
2023/03/07 05:43:24;;;;;;;23.63;10.85;;;;;;;;;;5031750;28;20030;-65
2023/03/07 05:45:50;;;;;;;29.90;14.25;;;;;;;;;;5032741;28;20063;-64
2023/03/07 05:48:15;;;;;;;24.40;11.18;;;;;;;;;;5031787;28;20060;-64
2023/03/07 05:50:41;;;;;;;21.23;10.63;;;;;;;;;;5031960;28;20034;-65
2023/03/07 05:53:07;;;;;;;21.20;10.23;;;;;;;;;;5032562;28;20037;-64
2023/03/07 05:55:33;;;;;;;21.38;9.43;;;;;;;;;;5031581;28;20030;-64
2023/03/07 05:57:59;;;;;;;18.05;9.38;;;;;;;;;;5014669;28;20485;-65
2023/03/07 06:00:24;;;;;;;22.50;10.70;;;;;;;;;;5031791;28;20084;-66
2023/03/07 06:02:50;;;;;;;20.38;9.95;;;;;;;;;;5032618;28;20040;-65
2023/03/07 06:05:15;;;;;;;22.48;9.55;;;;;;;;;;5030348;28;20033;-65
2023/03/07 06:07:41;;;;;;;21.50;9.70;;;;;;;;;;5032251;28;20079;-65
2023/03/07 06:10:07;;;;;;;22.70;10.07;;;;;;;;;;5032654;28;20462;-64
2023/03/07 06:12:32;;;;;;;19.95;9.60;;;;;;;;;;5031709;28;20052;-65
2023/03/07 06:14:58;;;;;;;22.15;9.23;;;;;;;;;;5032209;28;20041;-65
2023/03/07 06:17:23;;;;;;;26.23;13.32;;;;;;;;;;5031421;28;20083;-65
2023/03/07 06:19:49;;;;;;;21.65;10.15;;;;;;;;;;5031203;28;20030;-66
2023/03/07 06:22:15;;;;;;;24.20;13.20;;;;;;;;;;5029750;28;20120;-64
2023/03/07 06:24:40;;;;;;;27.58;13.02;;;;;;;;;;5032094;28;20452;-65
2023/03/07 06:27:06;;;;;;;17.02;10.85;;;;;;;;;;5032115;28;20079;-65
2023/03/07 06:29:31;;;;;;;21.75;12.57;;;;;;;;;;5031415;28;20160;-64
2023/03/07 06:31:57;;;;;;;30.85;15.45;;;;;;;;;;5014593;28;20025;-64
2023/03/07 06:34:22;;;;;;;21.08;12.15;;;;;;;;;;5031378;28;20061;-64
2023/03/07 06:36:47;;;;;;;23.10;13.23;;;;;;;;;;5031307;28;20458;-63
2023/03/07 06:39:15;;;;;;;33.97;18.15;;;;;;;;;;5031502;28;20027;-64
2023/03/07 06:41:41;;;;;;;33.08;18.77;;;;;;;;;;5014184;28;20505;-64
2023/03/07 06:44:06;;;;;;;32.05;17.10;;;;;;;;;;5031632;28;20080;-65
2023/03/07 06:46:32;;;;;;;35.33;18.30;;;;;;;;;;5031078;28;20041;-64
2023/03/07 06:48:57;;;;;;;32.45;15.63;;;;;;;;;;5031744;28;20022;-64
2023/03/07 06:51:23;;;;;;;39.17;19.38;;;;;;;;;;5030281;28;20053;-64
2023/03/07 06:53:48;;;;;;;33.30;16.85;;;;;;;;;;5031467;28;20037;-64
2023/03/07 06:56:14;;;;;;;26.27;13.13;;;;;;;;;;5031488;28;20025;-63
2023/03/07 06:58:39;;;;;;;28.02;15.60;;;;;;;;;;5031185;28;20033;-64
2023/03/07 07:01:04;;;;;;;24.15;13.65;;;;;;;;;;5031789;28;20112;-65
2023/03/07 07:03:30;;;;;;;23.85;15.32;;;;;;;;;;5030285;28;20041;-65
2023/03/07 07:05:55;;;;;;;20.08;11.48;;;;;;;;;;5034246;28;20033;-65
2023/03/07 07:08:21;;;;;;;24.73;13.23;;;;;;;;;;5034978;28;20029;-65
2023/03/07 07:10:46;;;;;;;22.15;12.93;;;;;;;;;;5034825;28;20066;-65
2023/03/07 07:13:11;;;;;;;22.42;12.80;;;;;;;;;;5033042;28;20030;-65
2023/03/07 07:15:37;;;;;;;25.25;12.82;;;;;;;;;;5034901;28;20025;-65
2023/03/07 07:18:02;;;;;;;22.60;12.98;;;;;;;;;;5035038;28;20438;-65
2023/03/07 07:20:28;;;;;;;20.17;10.45;;;;;;;;;;5034580;28;20098;-64
2023/03/07 07:22:53;;;;;;;14.70;9.20;;;;;;;;;;5035191;28;20108;-65
2023/03/07 07:25:18;;;;;;;14.55;7.90;;;;;;;;;;5034734;28;20116;-64
2023/03/07 07:27:44;;;;;;;18.08;10.48;;;;;;;;;;5033880;28;20393;-67
2023/03/07 07:30:10;;;;;;;12.50;6.90;;;;;;;;;;5035482;28;20497;-65
2023/03/07 07:32:36;;;;;;;19.85;10.15;;;;;;;;;;5034428;28;20117;-65
2023/03/07 07:35:01;;;;;;;21.50;11.57;;;;;;;;;;5017447;28;20116;-65
2023/03/07 07:37:26;;;;;;;17.08;9.55;;;;;;;;;;5034467;28;20041;-65
2023/03/07 07:39:52;;;;;;;22.95;12.40;;;;;;;;;;5035338;28;20028;-66
2023/03/07 07:42:17;;;;;;;24.20;11.77;;;;;;;;;;5034392;28;20025;-65
2023/03/07 07:44:45;;;;;;;24.17;11.57;;;;;;;;;;5034568;28;20083;-65
2023/03/07 07:47:11;;;;;;;21.23;11.55;;;;;;;;;;5017755;28;20034;-65
2023/03/07 07:49:36;;;;;;;23.13;11.20;;;;;;;;;;5033905;28;20025;-67
2023/03/07 07:52:02;;;;;;;26.23;14.00;;;;;;;;;;5035196;28;20032;-66
2023/03/07 07:54:27;;;;;;;25.45;13.82;;;;;;;;;;5034368;28;20040;-65
2023/03/07 07:56:53;;;;;;;27.92;15.15;;;;;;;;;;5016448;28;20107;-65
2023/03/07 07:59:19;;;;;;;23.00;12.80;;;;;;;;;;5034324;28;20025;-65
2023/03/07 08:01:44;;;;;;;16.23;9.02;;;;;;;;;;5034787;28;20030;-65
2023/03/07 08:04:10;;;;;;;14.25;7.80;;;;;;;;;;5032672;28;20025;-65
2023/03/07 08:06:35;;;;;;;13.20;6.50;;;;;;;;;;5033589;28;20120;-66
2023/03/07 08:09:01;;;;;;;11.77;5.93;;;;;;;;;;5035114;28;20116;-66
2023/03/07 08:11:26;;;;;;;10.05;5.13;;;;;;;;;;5034295;28;20036;-66
2023/03/07 08:13:51;;;;;;;11.20;5.25;;;;;;;;;;5035003;28;20034;-67
2023/03/07 08:16:20;;;;;;;12.63;6.25;;;;;;;;;;5034726;28;20065;-66
2023/03/07 08:18:52;;;;;;;11.20;5.72;;;;;;;;;;5033802;28;20034;-66
2023/03/07 08:21:17;;;;;;;9.10;4.95;;;;;;;;;;5034576;28;20044;-67
2023/03/07 08:23:43;;;;;;;7.63;4.10;;;;;;;;;;5034192;28;20038;-67
2023/03/07 08:26:10;;;;;;;8.73;4.38;;;;;;;;;;5034507;28;20037;-65
2023/03/07 08:28:38;;;;;;;7.15;3.80;;;;;;;;;;5033572;28;20029;-67
2023/03/07 08:31:13;;;;;;;8.38;3.63;;;;;;;;;;5034382;28;20359;-65
2023/03/07 08:33:39;;;;;;;6.20;3.58;;;;;;;;;;5032642;28;20033;-67
2023/03/07 08:36:05;;;;;;;6.38;3.60;;;;;;;;;;5034042;28;20026;-66
2023/03/07 08:38:31;;;;;;;8.13;3.65;;;;;;;;;;5033165;28;20035;-65
2023/03/07 08:41:04;;;;;;;7.80;3.78;;;;;;;;;;5033892;28;20048;-67
2023/03/07 08:43:32;;;;;;;7.47;3.80;;;;;;;;;;5032704;28;20041;-67
2023/03/07 08:45:57;;;;;;;6.57;3.60;;;;;;;;;;5033857;28;20029;-66
2023/03/07 08:48:23;;;;;;;8.00;4.18;;;;;;;;;;5032672;28;20048;-66
2023/03/07 08:50:49;;;;;;;7.88;3.92;;;;;;;;;;5033692;28;20114;-66
2023/03/07 08:53:15;;;;;;;6.95;3.10;;;;;;;;;;5033707;28;20389;-67
2023/03/07 08:55:40;;;;;;;7.63;3.78;;;;;;;;;;5033005;28;20464;-65
2023/03/07 08:58:06;;;;;;;6.07;3.30;;;;;;;;;;5031188;28;20034;-66
2023/03/07 09:00:31;;;;;;;6.20;3.42;;;;;;;;;;5032551;28;20041;-65
2023/03/07 09:02:57;;;;;;;8.25;3.90;;;;;;;;;;5033473;28;20029;-65
2023/03/07 09:05:23;;;;;;;8.15;3.92;;;;;;;;;;5031336;28;20580;-65
2023/03/07 09:07:49;;;;;;;7.18;3.42;;;;;;;;;;5033332;28;20087;-65
2023/03/07 09:10:16;;;;;;;6.07;3.15;;;;;;;;;;5033259;28;20033;-66
2023/03/07 09:12:41;;;;;;;6.47;3.50;;;;;;;;;;5014838;28;20108;-65
2023/03/07 09:15:07;;;;;;;6.28;3.00;;;;;;;;;;5033440;28;20113;-65
2023/03/07 09:17:34;;;;;;;5.72;2.80;;;;;;;;;;5032637;28;20108;-64
2023/03/07 09:19:59;;;;;;;5.43;3.00;;;;;;;;;;5032472;28;20029;-65
2023/03/07 09:22:26;;;;;;;4.68;2.70;;;;;;;;;;5032011;28;20091;-64
2023/03/07 09:24:52;;;;;;;6.03;2.80;;;;;;;;;;5033146;28;20029;-67
2023/03/07 09:27:17;;;;;;;6.72;2.90;;;;;;;;;;5014986;28;20033;-66
2023/03/07 09:29:43;;;;;;;6.18;3.13;;;;;;;;;;5032068;28;20738;-66
2023/03/07 09:32:09;;;;;;;7.68;3.40;;;;;;;;;;5032933;28;20108;-66
2023/03/07 09:34:34;;;;;;;7.05;3.42;;;;;;;;;;5031648;28;20064;-67
2023/03/07 09:37:00;;;;;;;7.20;3.50;;;;;;;;;;5032911;28;20120;-66
2023/03/07 09:39:25;;;;;;;6.97;3.35;;;;;;;;;;5032315;28;20454;-66
2023/03/07 09:41:58;;;;;;;9.25;3.72;;;;;;;;;;5031277;28;20254;-66
2023/03/07 09:44:56;;;;;;;7.00;3.60;;;;;;;;;;5032604;28;20045;-66
2023/03/07 09:47:27;;;;;;;9.15;3.58;;;;;;;;;;4978329;28;20083;-66
2023/03/07 09:49:53;;;;;;;6.55;3.33;;;;;;;;;;5032852;28;20079;-67
2023/03/07 09:52:25;;;;;;;7.15;3.50;;;;;;;;;;5032905;28;20037;-66
2023/03/07 09:54:56;;;;;;;6.30;3.33;;;;;;;;;;5032097;28;20080;-66
2023/03/07 09:57:26;;;;;;;7.15;3.42;;;;;;;;;;5031183;28;20033;-67
2023/03/07 09:59:57;;;;;;;6.13;3.05;;;;;;;;;;5032364;28;20041;-66
2023/03/07 10:02:50;;;;;;;5.70;3.17;;;;;;;;;;5031563;28;20067;-66
2023/03/07 10:05:50;;;;;;;6.72;3.40;;;;;;;;;;5032646;28;20025;-66
2023/03/07 10:08:19;;;;;;;7.85;3.65;;;;;;;;;;5028915;28;20053;-66
2023/03/07 10:11:13;;;;;;;7.18;3.58;;;;;;;;;;5031427;28;20610;-66
2023/03/07 10:13:44;;;;;;;6.97;3.60;;;;;;;;;;5031567;28;20026;-66
2023/03/07 10:16:09;;;;;;;7.32;3.92;;;;;;;;;;5031733;28;20115;-66
2023/03/07 10:18:49;;;;;;;8.75;4.00;;;;;;;;;;5031430;28;20413;-67
2023/03/07 10:21:33;;;;;;;7.65;3.95;;;;;;;;;;5032430;28;20481;-66
2023/03/07 10:24:20;;;;;;;9.48;4.10;;;;;;;;;;5032060;28;20021;-67
2023/03/07 10:27:13;;;;;;;8.55;4.53;;;;;;;;;;5029127;28;20037;-66
2023/03/07 10:29:48;;;;;;;9.48;4.80;;;;;;;;;;5030748;28;20369;-66
2023/03/07 10:32:33;;;;;;;11.15;4.78;;;;;;;;;;5013711;28;20037;-66
2023/03/07 10:35:11;;;;;;;8.30;4.43;;;;;;;;;;5032226;28;20033;-66
2023/03/07 10:38:03;;;;;;;8.93;4.30;;;;;;;;;;5031944;28;20033;-66
2023/03/07 10:40:35;;;;;;;6.95;3.97;;;;;;;;;;5014726;28;20518;-65
2023/03/07 10:43:01;;;;;;;7.95;4.22;;;;;;;;;;5031790;28;20030;-66
2023/03/07 10:45:30;;;;;;;8.60;4.70;;;;;;;;;;5031449;28;20052;-66
2023/03/07 10:48:05;;;;;;;9.55;5.00;;;;;;;;;;5030521;28;20041;-66
2023/03/07 10:50:40;;;;;;;8.20;4.60;;;;;;;;;;5030801;28;20030;-65
2023/03/07 10:53:16;;;;;;;9.10;4.60;;;;;;;;;;5032203;28;20113;-67
2023/03/07 10:55:43;;;;;;;9.15;4.53;;;;;;;;;;5032304;28;20553;-67
2023/03/07 10:58:25;;;;;;;8.13;4.50;;;;;;;;;;5033061;28;20029;-67
2023/03/07 11:00:58;;;;;;;9.05;4.75;;;;;;;;;;5034421;28;20037;-67
2023/03/07 11:03:31;;;;;;;10.35;5.43;;;;;;;;;;5036511;28;20030;-69
2023/03/07 11:05:56;;;;;;;9.60;4.90;;;;;;;;;;5035513;28;20057;-68
2023/03/07 11:08:31;;;;;;;8.65;4.57;;;;;;;;;;5038136;28;20049;-68
2023/03/07 11:10:59;;;;;;;9.70;4.60;;;;;;;;;;5036774;28;20033;-68
2023/03/07 11:13:24;;;;;;;8.80;4.75;;;;;;;;;;5033933;28;20181;-67
2023/03/07 11:15:51;;;;;;;8.95;4.80;;;;;;;;;;5031707;28;20470;-66
2023/03/07 11:18:43;;;;;;;8.95;4.80;;;;;;;;;;5031897;28;20037;-66
2023/03/07 11:21:28;;;;;;;8.35;4.47;;;;;;;;;;5027465;28;20045;-67
2023/03/07 11:24:15;;;;;;;9.20;4.90;;;;;;;;;;5031176;28;20116;-67
2023/03/07 11:26:41;;;;;;;7.38;3.45;;;;;;;;;;5030884;28;20090;-65
2023/03/07 11:29:15;;;;;;;6.93;4.18;;;;;;;;;;5031868;28;20459;-67
2023/03/07 11:32:11;;;;;;;9.85;4.63;;;;;;;;;;5030907;28;20030;-69
2023/03/07 11:35:00;;;;;;;8.55;4.25;;;;;;;;;;5031024;28;20117;-66
2023/03/07 11:37:46;;;;;;;8.55;4.30;;;;;;;;;;5031403;28;20044;-67
2023/03/07 11:40:22;;;;;;;11.18;4.85;;;;;;;;;;5031701;28;20401;-68
2023/03/07 11:43:09;;;;;;;9.05;5.18;;;;;;;;;;5029755;28;20057;-67
2023/03/07 11:45:58;;;;;;;9.88;5.82;;;;;;;;;;5030430;28;20098;-67
2023/03/07 11:48:41;;;;;;;13.38;5.90;;;;;;;;;;5031303;28;20385;-67
2023/03/07 11:51:51;;;;;;;9.45;5.10;;;;;;;;;;5033020;28;20022;-67
2023/03/07 11:54:45;;;;;;;10.60;5.60;;;;;;;;;;4954507;29;20107;-67
2023/03/07 11:57:43;;;;;;;11.40;6.13;;;;;;;;;;4951905;29;20123;-68
2023/03/07 12:00:37;;;;;;;13.15;6.03;;;;;;;;;;5024608;28;20041;-68
2023/03/07 12:03:54;;;;;;;10.00;5.55;;;;;;;;;;5034032;28;20025;-66
2023/03/07 12:06:34;;;;;;;12.13;6.28;;;;;;;;;;5023056;28;20090;-68
2023/03/07 12:09:09;;;;;;;10.05;5.85;;;;;;;;;;5034366;28;20377;-67
2023/03/07 12:11:50;;;;;;;10.13;6.20;;;;;;;;;;5032703;28;20069;-66
2023/03/07 12:14:39;;;;;;;10.45;5.80;;;;;;;;;;5034631;28;20041;-67
2023/03/07 12:17:39;;;;;;;10.98;6.60;;;;;;;;;;5034513;28;20125;-67
2023/03/07 12:20:20;;;;;;;11.60;6.72;;;;;;;;;;4980576;28;20154;-67
2023/03/07 12:23:03;;;;;;;13.10;7.32;;;;;;;;;;5033545;28;20061;-67
2023/03/07 12:25:34;;;;;;;16.40;7.85;;;;;;;;;;5034377;28;20037;-67
2023/03/07 12:28:16;;;;;;;14.38;8.50;;;;;;;;;;5033590;28;20044;-66
2023/03/07 12:30:55;;;;;;;13.95;8.23;;;;;;;;;;5032951;28;20036;-67
2023/03/07 12:33:41;;;;;;;13.43;6.80;;;;;;;;;;5034140;28;20099;-68
2023/03/07 12:36:15;;;;;;;13.00;7.53;;;;;;;;;;5034279;28;20029;-67
2023/03/07 12:38:54;;;;;;;14.55;7.72;;;;;;;;;;5033274;28;20112;-67
2023/03/07 12:41:47;;;;;;;12.55;7.45;;;;;;;;;;5015382;28;20039;-67
2023/03/07 12:44:22;;;;;;;14.93;7.40;;;;;;;;;;5033991;28;20057;-68
2023/03/07 12:47:00;;;;;;;13.35;7.22;;;;;;;;;;5033306;28;20037;-67
2023/03/07 12:49:38;;;;;;;14.93;7.63;;;;;;;;;;5033944;28;20030;-67
2023/03/07 12:52:08;;;;;;;11.85;6.53;;;;;;;;;;5033863;28;20040;-67
2023/03/07 12:54:39;;;;;;;14.17;8.10;;;;;;;;;;5033804;28;20033;-67
2023/03/07 12:57:23;;;;;;;12.70;7.57;;;;;;;;;;5033335;28;20040;-68
2023/03/07 12:59:50;;;;;;;13.65;7.07;;;;;;;;;;5032871;28;20090;-67
2023/03/07 13:02:22;;;;;;;13.43;7.53;;;;;;;;;;5032205;28;20073;-67
2023/03/07 13:04:47;;;;;;;13.55;7.88;;;;;;;;;;5032710;28;20027;-68
2023/03/07 13:07:25;;;;;;;14.65;8.57;;;;;;;;;;5033815;28;20038;-67
2023/03/07 13:09:53;;;;;;;14.82;7.70;;;;;;;;;;5032656;28;20051;-68
2023/03/07 13:12:32;;;;;;;13.32;7.65;;;;;;;;;;5030091;28;20029;-67
2023/03/07 13:14:58;;;;;;;13.40;8.10;;;;;;;;;;5012822;28;20492;-66
2023/03/07 13:17:29;;;;;;;13.65;8.23;;;;;;;;;;5013518;28;20026;-67
2023/03/07 13:20:21;;;;;;;;;;;;;;;;;;4995515;28;20100;-66
2023/03/07 13:22:46;;;;;;;;;;;;;;;;;;4982281;28;19913;-66
2023/03/07 13:25:21;;;;;;;10.93;5.53;;;;;;;;;;5013381;28;19917;-68
2023/03/07 13:27:57;;;;;;;11.15;6.60;;;;;;;;;;5024418;28;20043;-66
2023/03/07 13:30:26;;;;;;;10.95;6.15;;;;;;;;;;5032901;28;20049;-66
2023/03/07 13:32:54;;;;;;;14.20;8.05;;;;;;;;;;5032127;28;20037;-67
2023/03/07 13:35:37;;;;;;;14.75;8.32;;;;;;;;;;5032824;28;20030;-67
2023/03/07 13:38:37;;;;;;;14.32;8.27;;;;;;;;;;5032182;28;20025;-67
2023/03/07 13:41:07;;;;;;;12.55;7.05;;;;;;;;;;5031246;28;20374;-68
2023/03/07 13:43:55;;;;;;;12.52;7.85;;;;;;;;;;5032766;28;20037;-66
2023/03/07 13:46:23;;;;;;;13.82;8.82;;;;;;;;;;5032664;28;20112;-67
2023/03/07 13:48:49;;;;;;;12.77;7.45;;;;;;;;;;5031627;28;20381;-67
2023/03/07 13:51:14;;;;;;;13.55;7.45;;;;;;;;;;5014566;28;20030;-68
2023/03/07 13:53:44;;;;;;;14.25;8.63;;;;;;;;;;5032160;28;20112;-65
2023/03/07 13:56:18;;;;;;;12.50;7.28;;;;;;;;;;5031441;28;20029;-67
2023/03/07 13:59:05;;;;;;;12.43;7.10;;;;;;;;;;5030186;28;20088;-67
2023/03/07 14:01:41;;;;;;;14.55;7.72;;;;;;;;;;5032433;28;20044;-67
2023/03/07 14:04:16;;;;;;;7.18;4.13;;;;;;;;;;5032431;28;20025;-68
2023/03/07 14:06:54;;;;;;;13.45;8.10;;;;;;;;;;5031842;28;20061;-64
2023/03/07 14:09:29;;;;;;;14.85;8.90;;;;;;;;;;5014828;28;20160;-67
2023/03/07 14:12:08;;;;;;;14.48;7.88;;;;;;;;;;5030119;28;20045;-67
2023/03/07 14:15:04;;;;;;;13.93;7.78;;;;;;;;;;5031979;28;20087;-67
2023/03/07 14:18:23;;;;;;;12.40;8.25;;;;;;;;;;5032370;28;20035;-68
2023/03/07 14:21:11;;;;;;;12.00;7.25;;;;;;;;;;4951134;29;20066;-67
2023/03/07 14:24:06;;;;;;;11.98;7.50;;;;;;;;;;4951887;29;20070;-67
2023/03/07 14:26:36;;;;;;;16.42;8.25;;;;;;;;;;4949940;28;20039;-67
2023/03/07 14:29:13;;;;;;;14.93;7.78;;;;;;;;;;4950943;29;20122;-69
2023/03/07 14:31:41;;;;;;;10.70;6.32;;;;;;;;;;4951462;29;20075;-68
2023/03/07 14:34:15;;;;;;;14.05;7.53;;;;;;;;;;4951846;29;20097;-68
2023/03/07 14:36:41;;;;;;;12.10;6.78;;;;;;;;;;4949918;29;20031;-65
2023/03/07 14:39:12;;;;;;;16.17;6.97;;;;;;;;;;4951255;29;20039;-69
2023/03/07 14:42:02;;;;;;;12.65;6.20;;;;;;;;;;4951393;29;20032;-68
2023/03/07 14:44:42;;;;;;;11.18;7.03;;;;;;;;;;4951623;29;20043;-68
2023/03/07 14:48:06;;;;;;;11.60;6.80;;;;;;;;;;4951144;29;20038;-67
2023/03/07 14:50:32;;;;;;;9.60;6.00;;;;;;;;;;4941853;28;20348;-67
2023/03/07 14:53:10;;;;;;;13.75;7.40;;;;;;;;;;5009809;28;20481;-67